Time;durP1;ratioP1;P1;durP2;ratioP2;P2;SDS_P1;SDS_P2;PMS_P1;PMS_P2;Temp;Humidity;BMP_temperature;BMP_pressure;BME280_temperature;BME280_humidity;BME280_pressure;Samples;Min_cycle;Max_cycle;Signal;HPM_P1;HPM_P2
2022/10/04 00:01:46;;;;;;;8.83;7.20;;;;;;;;;;4957664;28;20988;-57
2022/10/04 00:04:12;;;;;;;14.20;7.33;;;;;;;;;;5007079;28;20437;-56
2022/10/04 00:06:42;;;;;;;9.93;7.70;;;;;;;;;;4962716;28;20901;-56
2022/10/04 00:09:11;;;;;;;10.63;6.00;;;;;;;;;;4977435;28;20807;-56
2022/10/04 00:11:37;;;;;;;13.73;6.60;;;;;;;;;;4987859;28;20514;-56
2022/10/04 00:14:07;;;;;;;14.13;6.87;;;;;;;;;;5001444;28;20446;-55
2022/10/04 00:16:34;;;;;;;9.37;6.47;;;;;;;;;;4986097;28;20729;-55
2022/10/04 00:19:01;;;;;;;11.70;7.37;;;;;;;;;;4972270;28;20437;-56
2022/10/04 00:21:48;;;;;;;8.70;6.50;;;;;;;;;;4977477;28;22052;-57
2022/10/04 00:24:20;;;;;;;11.50;7.40;;;;;;;;;;4964570;28;20436;-56
2022/10/04 00:26:49;;;;;;;9.37;6.80;;;;;;;;;;4975257;28;20496;-56
2022/10/04 00:29:37;;;;;;;11.70;7.03;;;;;;;;;;4955144;28;20928;-55
2022/10/04 00:32:09;;;;;;;10.63;5.97;;;;;;;;;;4972861;28;20452;-55
2022/10/04 00:34:36;;;;;;;12.80;6.70;;;;;;;;;;4967425;28;20429;-56
2022/10/04 00:37:03;;;;;;;7.73;6.13;;;;;;;;;;4973735;28;20432;-55
2022/10/04 00:39:32;;;;;;;8.50;6.50;;;;;;;;;;4983141;28;20844;-54
2022/10/04 00:42:02;;;;;;;8.47;6.50;;;;;;;;;;4980547;28;20511;-56
2022/10/04 00:44:49;;;;;;;10.93;7.20;;;;;;;;;;4954124;28;20473;-54
2022/10/04 00:47:31;;;;;;;7.97;6.17;;;;;;;;;;4965572;28;20491;-55
2022/10/04 00:50:01;;;;;;;9.67;6.70;;;;;;;;;;4971856;28;20438;-56
2022/10/04 00:52:39;;;;;;;11.27;6.90;;;;;;;;;;4981352;28;20458;-58
2022/10/04 00:55:07;;;;;;;8.07;6.50;;;;;;;;;;4952116;28;21093;-56
2022/10/04 00:57:40;;;;;;;12.23;8.00;;;;;;;;;;4974275;28;20450;-56
2022/10/04 01:00:13;;;;;;;10.40;6.77;;;;;;;;;;4986890;28;21053;-55
2022/10/04 01:02:43;;;;;;;9.77;6.60;;;;;;;;;;4987939;28;20448;-56
2022/10/04 01:05:15;;;;;;;8.63;6.13;;;;;;;;;;4978084;28;20429;-55
2022/10/04 01:07:43;;;;;;;8.67;6.03;;;;;;;;;;4951281;28;20574;-55
2022/10/04 01:10:13;;;;;;;12.27;7.40;;;;;;;;;;4980625;28;20442;-55
2022/10/04 01:12:44;;;;;;;8.67;6.23;;;;;;;;;;4957507;28;20452;-55
2022/10/04 01:15:13;;;;;;;9.60;6.60;;;;;;;;;;4979804;28;20432;-56
2022/10/04 01:17:39;;;;;;;11.00;6.30;;;;;;;;;;4973072;28;20433;-55
2022/10/04 01:20:23;;;;;;;9.80;6.10;;;;;;;;;;4979756;28;20433;-56
2022/10/04 01:22:49;;;;;;;11.10;6.93;;;;;;;;;;4999502;28;20421;-55
2022/10/04 01:25:35;;;;;;;9.90;6.93;;;;;;;;;;4979077;28;20456;-56
2022/10/04 01:28:01;;;;;;;11.33;7.53;;;;;;;;;;4954690;28;20468;-55
2022/10/04 01:30:27;;;;;;;7.67;6.43;;;;;;;;;;4976246;28;21135;-56
2022/10/04 01:32:53;;;;;;;9.77;6.07;;;;;;;;;;4984747;28;20508;-56
2022/10/04 01:35:19;;;;;;;10.77;6.80;;;;;;;;;;4957297;28;20520;-56
2022/10/04 01:37:45;;;;;;;13.00;6.83;;;;;;;;;;5007743;28;20512;-57
2022/10/04 01:40:11;;;;;;;8.67;6.93;;;;;;;;;;4950039;28;20502;-56
2022/10/04 01:42:54;;;;;;;7.97;6.60;;;;;;;;;;5004131;28;20487;-56
2022/10/04 01:45:25;;;;;;;10.07;6.70;;;;;;;;;;4953371;28;20437;-56
2022/10/04 01:47:52;;;;;;;10.60;7.50;;;;;;;;;;4976221;28;20508;-56
2022/10/04 01:50:33;;;;;;;9.60;7.23;;;;;;;;;;4995909;28;20500;-56
2022/10/04 01:53:10;;;;;;;12.23;6.70;;;;;;;;;;4975570;28;20440;-55
2022/10/04 01:55:37;;;;;;;12.03;7.07;;;;;;;;;;4991163;28;20591;-55
2022/10/04 01:58:29;;;;;;;7.83;6.27;;;;;;;;;;5006495;28;20449;-56
2022/10/04 02:01:06;;;;;;;8.93;6.07;;;;;;;;;;4976120;28;20972;-55
2022/10/04 02:03:35;;;;;;;9.70;6.70;;;;;;;;;;4984754;28;20448;-55
2022/10/04 02:06:03;;;;;;;9.43;5.80;;;;;;;;;;4959708;28;20485;-56
2022/10/04 02:08:30;;;;;;;7.93;5.97;;;;;;;;;;4979398;28;20460;-54
2022/10/04 02:10:56;;;;;;;9.50;6.63;;;;;;;;;;4950529;28;20453;-55
2022/10/04 02:13:23;;;;;;;7.53;6.00;;;;;;;;;;5006766;28;20856;-55
2022/10/04 02:15:49;;;;;;;10.83;6.90;;;;;;;;;;4954713;28;20455;-54
2022/10/04 02:18:16;;;;;;;11.50;5.50;;;;;;;;;;4995612;28;20502;-55
2022/10/04 02:20:42;;;;;;;9.03;6.07;;;;;;;;;;4982236;28;20441;-59
2022/10/04 02:23:08;;;;;;;9.67;6.57;;;;;;;;;;4976273;28;20433;-55
2022/10/04 02:25:35;;;;;;;9.23;6.80;;;;;;;;;;4956240;28;21294;-56
2022/10/04 02:28:01;;;;;;;8.90;6.60;;;;;;;;;;4976502;28;20488;-55
2022/10/04 02:30:27;;;;;;;10.53;7.97;;;;;;;;;;4943358;28;20527;-55
2022/10/04 02:32:56;;;;;;;9.33;6.77;;;;;;;;;;4978562;28;20515;-55
2022/10/04 02:35:22;;;;;;;10.33;7.63;;;;;;;;;;4986494;28;20444;-55
2022/10/04 02:37:49;;;;;;;8.60;6.30;;;;;;;;;;4980334;28;20512;-55
2022/10/04 02:40:19;;;;;;;6.27;5.20;;;;;;;;;;4955806;28;20466;-55
2022/10/04 02:43:07;;;;;;;8.20;5.53;;;;;;;;;;4976990;28;20535;-54
2022/10/04 02:45:53;;;;;;;8.97;6.27;;;;;;;;;;4956489;28;20453;-56
2022/10/04 02:48:20;;;;;;;10.43;6.00;;;;;;;;;;4982771;28;20524;-55
2022/10/04 02:50:48;;;;;;;9.43;5.87;;;;;;;;;;4954120;28;20453;-56
2022/10/04 02:53:18;;;;;;;8.27;5.10;;;;;;;;;;4982445;28;20475;-55
2022/10/04 02:55:45;;;;;;;7.30;5.00;;;;;;;;;;4967825;28;20535;-54
2022/10/04 02:58:13;;;;;;;11.33;5.17;;;;;;;;;;4981907;28;20993;-55
2022/10/04 03:00:49;;;;;;;8.57;5.50;;;;;;;;;;4954502;28;20472;-56
2022/10/04 03:03:22;;;;;;;8.27;6.10;;;;;;;;;;4979420;28;20436;-56
2022/10/04 03:05:57;;;;;;;9.10;5.30;;;;;;;;;;4976936;28;20877;-56
2022/10/04 03:08:24;;;;;;;14.07;6.33;;;;;;;;;;4983421;28;20491;-57
2022/10/04 03:10:50;;;;;;;12.60;6.30;;;;;;;;;;4958498;28;20549;-56
2022/10/04 03:13:16;;;;;;;8.43;5.73;;;;;;;;;;4982838;28;21163;-56
2022/10/04 03:15:42;;;;;;;7.90;4.70;;;;;;;;;;4980596;28;20962;-56
2022/10/04 03:18:08;;;;;;;9.93;6.60;;;;;;;;;;4979059;28;20528;-55
2022/10/04 03:20:38;;;;;;;8.80;6.47;;;;;;;;;;4958844;28;20456;-54
2022/10/04 03:23:04;;;;;;;12.70;6.70;;;;;;;;;;4981673;28;20448;-55
2022/10/04 03:25:30;;;;;;;9.67;6.07;;;;;;;;;;4955534;28;20568;-54
2022/10/04 03:27:59;;;;;;;8.33;5.50;;;;;;;;;;4978189;28;20479;-55
2022/10/04 03:30:25;;;;;;;7.97;5.20;;;;;;;;;;4956591;28;20437;-55
2022/10/04 03:32:51;;;;;;;7.33;5.27;;;;;;;;;;5009391;28;20448;-55
2022/10/04 03:35:32;;;;;;;15.03;6.10;;;;;;;;;;4943750;28;20437;-55
2022/10/04 03:37:57;;;;;;;10.57;4.97;;;;;;;;;;4981632;28;20449;-55
2022/10/04 03:40:26;;;;;;;13.80;5.93;;;;;;;;;;4953061;28;20496;-55
2022/10/04 03:42:52;;;;;;;8.47;5.30;;;;;;;;;;5010836;28;20522;-54
2022/10/04 03:45:18;;;;;;;7.87;4.90;;;;;;;;;;4975204;28;20444;-56
2022/10/04 03:47:44;;;;;;;7.23;5.10;;;;;;;;;;4981454;28;20951;-56
2022/10/04 03:50:13;;;;;;;9.57;5.07;;;;;;;;;;4951725;28;21242;-56
2022/10/04 03:52:46;;;;;;;8.43;5.43;;;;;;;;;;4977261;28;20441;-56
2022/10/04 03:55:12;;;;;;;8.97;5.73;;;;;;;;;;4973549;28;20529;-56
2022/10/04 03:57:38;;;;;;;5.90;5.27;;;;;;;;;;4980794;28;20528;-57
2022/10/04 04:00:05;;;;;;;6.90;5.30;;;;;;;;;;4954057;28;20489;-56
2022/10/04 04:02:34;;;;;;;11.33;5.70;;;;;;;;;;4976901;28;20448;-56
2022/10/04 04:05:19;;;;;;;8.90;6.10;;;;;;;;;;4956473;28;20967;-56
2022/10/04 04:08:19;;;;;;;7.67;5.47;;;;;;;;;;4974650;28;20472;-55
2022/10/04 04:10:50;;;;;;;8.03;4.90;;;;;;;;;;4949706;28;21782;-56
2022/10/04 04:13:35;;;;;;;6.50;4.60;;;;;;;;;;5004431;28;20485;-56
2022/10/04 04:16:01;;;;;;;7.60;6.33;;;;;;;;;;4951288;28;20457;-56
2022/10/04 04:18:28;;;;;;;7.40;4.80;;;;;;;;;;4995439;28;20456;-56
2022/10/04 04:20:58;;;;;;;13.00;5.57;;;;;;;;;;4964193;28;21106;-56
2022/10/04 04:23:31;;;;;;;8.80;5.63;;;;;;;;;;4972147;28;20989;-56
2022/10/04 04:25:59;;;;;;;9.83;5.10;;;;;;;;;;5008217;28;20429;-56
2022/10/04 04:28:38;;;;;;;9.40;6.23;;;;;;;;;;4982873;28;20441;-56
2022/10/04 04:31:04;;;;;;;8.10;4.60;;;;;;;;;;4955673;28;20502;-54
2022/10/04 04:33:45;;;;;;;7.33;5.20;;;;;;;;;;4976644;28;20513;-56
2022/10/04 04:36:11;;;;;;;8.43;5.60;;;;;;;;;;4940056;28;20446;-56
2022/10/04 04:39:33;;;;;;;10.83;6.23;;;;;;;;;;4973767;28;20504;-56
2022/10/04 04:41:26;;;;;;;8.23;5.10;;;;;;;;;;4939128;28;20462;-56
2022/10/04 04:43:52;;;;;;;10.50;5.47;;;;;;;;;;4965046;28;20433;-56
2022/10/04 04:46:19;;;;;;;7.47;5.77;;;;;;;;;;4973073;28;20481;-56
2022/10/04 04:48:46;;;;;;;8.53;5.20;;;;;;;;;;4966712;28;21068;-55
2022/10/04 04:51:14;;;;;;;5.70;5.10;;;;;;;;;;4942832;28;20476;-55
2022/10/04 04:53:40;;;;;;;11.07;6.30;;;;;;;;;;4966812;28;20523;-56
2022/10/04 04:56:06;;;;;;;9.43;5.97;;;;;;;;;;4952254;28;20449;-56
2022/10/04 04:58:34;;;;;;;8.87;5.90;;;;;;;;;;5002974;28;20440;-55
2022/10/04 05:01:01;;;;;;;11.40;5.70;;;;;;;;;;4977228;28;24274;-56
2022/10/04 05:03:30;;;;;;;7.70;6.10;;;;;;;;;;4970959;28;20456;-55
2022/10/04 05:05:57;;;;;;;6.93;5.40;;;;;;;;;;4977455;28;20446;-56
2022/10/04 05:08:29;;;;;;;7.67;5.80;;;;;;;;;;4979328;28;20481;-56
2022/10/04 05:11:07;;;;;;;7.43;5.47;;;;;;;;;;4949569;28;20444;-57
2022/10/04 05:13:50;;;;;;;10.93;5.07;;;;;;;;;;4976639;28;20469;-56
2022/10/04 05:16:19;;;;;;;6.57;5.00;;;;;;;;;;4955327;28;20433;-54
2022/10/04 05:18:45;;;;;;;13.17;6.57;;;;;;;;;;5003627;28;20429;-55
2022/10/04 05:21:13;;;;;;;11.03;6.87;;;;;;;;;;4956932;28;20433;-54
2022/10/04 05:23:39;;;;;;;8.10;5.97;;;;;;;;;;4983704;28;20425;-55
2022/10/04 05:26:08;;;;;;;8.63;5.40;;;;;;;;;;4962819;28;21278;-55
2022/10/04 05:28:34;;;;;;;11.27;6.03;;;;;;;;;;4981267;28;20452;-54
2022/10/04 05:31:03;;;;;;;8.17;5.70;;;;;;;;;;4990925;28;21230;-55
2022/10/04 05:33:44;;;;;;;11.90;4.57;;;;;;;;;;4979564;28;20439;-54
2022/10/04 05:36:10;;;;;;;8.90;5.60;;;;;;;;;;4982773;28;20467;-55
2022/10/04 05:38:43;;;;;;;10.80;5.63;;;;;;;;;;4981880;28;20433;-55
2022/10/04 05:41:12;;;;;;;12.33;5.00;;;;;;;;;;4957910;28;21469;-55
2022/10/04 05:43:43;;;;;;;7.27;4.70;;;;;;;;;;5006768;28;20492;-55
2022/10/04 05:46:09;;;;;;;10.60;5.97;;;;;;;;;;4980264;28;20710;-55
2022/10/04 05:48:35;;;;;;;12.93;5.67;;;;;;;;;;4985528;28;20472;-54
2022/10/04 05:51:01;;;;;;;8.27;6.10;;;;;;;;;;4979960;28;20528;-54
2022/10/04 05:53:32;;;;;;;11.33;6.90;;;;;;;;;;4964013;28;20517;-54
2022/10/04 05:56:04;;;;;;;13.03;5.80;;;;;;;;;;4979267;28;20864;-54
2022/10/04 05:58:39;;;;;;;7.67;5.73;;;;;;;;;;4982008;28;20441;-55
2022/10/04 06:01:11;;;;;;;7.07;5.70;;;;;;;;;;4980782;28;20480;-54
2022/10/04 06:03:56;;;;;;;12.60;4.93;;;;;;;;;;4981435;28;20489;-56
2022/10/04 06:06:23;;;;;;;4.70;4.20;;;;;;;;;;4975483;28;20465;-55
2022/10/04 06:09:01;;;;;;;9.63;5.30;;;;;;;;;;4987808;28;20854;-55
2022/10/04 06:11:33;;;;;;;6.10;4.30;;;;;;;;;;4976310;28;20465;-55
2022/10/04 06:14:10;;;;;;;8.10;4.40;;;;;;;;;;5014242;28;20537;-53
2022/10/04 06:16:55;;;;;;;10.27;4.67;;;;;;;;;;4987894;28;20455;-55
2022/10/04 06:19:34;;;;;;;7.30;5.17;;;;;;;;;;4983178;28;20473;-55
2022/10/04 06:22:03;;;;;;;6.83;4.63;;;;;;;;;;4982863;28;20429;-53
2022/10/04 06:24:29;;;;;;;7.60;5.80;;;;;;;;;;4982547;28;20725;-55
2022/10/04 06:27:18;;;;;;;7.00;4.90;;;;;;;;;;4971538;28;20492;-54
2022/10/04 06:30:03;;;;;;;6.27;5.17;;;;;;;;;;4973402;28;20535;-55
2022/10/04 06:32:48;;;;;;;7.90;5.07;;;;;;;;;;4980654;28;20860;-55
2022/10/04 06:35:29;;;;;;;7.63;5.80;;;;;;;;;;4961313;28;20982;-54
2022/10/04 06:37:58;;;;;;;7.77;5.57;;;;;;;;;;4987886;28;20429;-54
2022/10/04 06:40:34;;;;;;;10.43;5.73;;;;;;;;;;4965542;28;20475;-54
2022/10/04 06:43:06;;;;;;;7.13;4.57;;;;;;;;;;5016109;28;20426;-56
2022/10/04 06:45:51;;;;;;;6.47;5.73;;;;;;;;;;4963731;28;20453;-55
2022/10/04 06:48:22;;;;;;;6.30;4.90;;;;;;;;;;5015502;28;20472;-54
2022/10/04 06:50:50;;;;;;;11.73;5.47;;;;;;;;;;4956848;28;20480;-56
2022/10/04 06:53:15;;;;;;;10.67;5.73;;;;;;;;;;5011488;28;20425;-56
2022/10/04 06:55:45;;;;;;;8.80;5.90;;;;;;;;;;4989359;28;20420;-55
2022/10/04 06:58:31;;;;;;;9.33;5.50;;;;;;;;;;5004530;28;20424;-53
2022/10/04 07:01:00;;;;;;;7.60;4.93;;;;;;;;;;4965926;28;20964;-55
2022/10/04 07:03:39;;;;;;;9.20;6.03;;;;;;;;;;4992025;28;20488;-55
2022/10/04 07:06:05;;;;;;;5.90;4.60;;;;;;;;;;4966818;28;20459;-56
2022/10/04 07:08:35;;;;;;;13.30;5.10;;;;;;;;;;5017040;28;20433;-56
2022/10/04 07:11:15;;;;;;;14.33;4.90;;;;;;;;;;4983785;28;20989;-55
2022/10/04 07:13:48;;;;;;;5.77;3.97;;;;;;;;;;4988457;28;20453;-56
2022/10/04 07:16:33;;;;;;;10.83;4.50;;;;;;;;;;4990227;28;21166;-56
2022/10/04 07:19:08;;;;;;;8.30;4.03;;;;;;;;;;4986215;28;20429;-56
2022/10/04 07:21:53;;;;;;;4.90;4.40;;;;;;;;;;4966171;28;21199;-56
2022/10/04 07:24:39;;;;;;;6.10;4.60;;;;;;;;;;4988888;28;20445;-57
2022/10/04 07:27:07;;;;;;;5.60;4.07;;;;;;;;;;4983234;28;20509;-56
2022/10/04 07:29:35;;;;;;;6.43;5.73;;;;;;;;;;5014153;28;20495;-56
2022/10/04 07:32:03;;;;;;;7.17;4.40;;;;;;;;;;4991722;28;20504;-56
2022/10/04 07:34:29;;;;;;;6.00;5.40;;;;;;;;;;4989217;28;20909;-56
2022/10/04 07:36:58;;;;;;;10.90;6.10;;;;;;;;;;4994299;28;20481;-57
2022/10/04 07:39:32;;;;;;;6.40;5.53;;;;;;;;;;5013053;28;20549;-57
2022/10/04 07:42:00;;;;;;;6.53;4.40;;;;;;;;;;5009424;28;21084;-57
2022/10/04 07:44:33;;;;;;;7.30;5.03;;;;;;;;;;4984635;28;20442;-55
2022/10/04 07:47:01;;;;;;;6.30;5.70;;;;;;;;;;4988318;28;20485;-55
2022/10/04 07:49:27;;;;;;;5.80;4.37;;;;;;;;;;4988401;28;20424;-57
2022/10/04 07:52:01;;;;;;;7.30;5.10;;;;;;;;;;4976418;28;20445;-54
2022/10/04 07:54:38;;;;;;;9.33;5.33;;;;;;;;;;4979999;28;20456;-55
2022/10/04 07:57:24;;;;;;;7.17;4.57;;;;;;;;;;4985449;28;20835;-57
2022/10/04 07:59:54;;;;;;;6.73;4.53;;;;;;;;;;4983785;28;21268;-56
2022/10/04 08:02:23;;;;;;;9.67;6.17;;;;;;;;;;4971800;28;20993;-56
2022/10/04 08:05:00;;;;;;;7.47;6.60;;;;;;;;;;4977926;28;20429;-55
2022/10/04 08:07:31;;;;;;;14.93;6.20;;;;;;;;;;4971016;28;20558;-55
2022/10/04 08:10:02;;;;;;;10.13;6.70;;;;;;;;;;4980363;28;20433;-58
2022/10/04 08:12:34;;;;;;;7.73;6.83;;;;;;;;;;4984240;28;21021;-56
2022/10/04 08:15:17;;;;;;;8.50;6.20;;;;;;;;;;5010912;28;20508;-56
2022/10/04 08:17:50;;;;;;;7.90;5.90;;;;;;;;;;4991324;28;20694;-55
2022/10/04 08:20:35;;;;;;;7.87;6.57;;;;;;;;;;4988532;28;20436;-55
2022/10/04 08:23:16;;;;;;;6.67;6.00;;;;;;;;;;4959518;28;20448;-56
2022/10/04 08:25:46;;;;;;;7.23;5.83;;;;;;;;;;4964698;28;20445;-56
2022/10/04 08:31:37;;;;;;;6.20;5.50;;;;;;;;;;4984014;28;20423;-56
2022/10/04 08:34:11;;;;;;;9.07;6.30;;;;;;;;;;4986160;28;20433;-57
2022/10/04 08:36:40;;;;;;;7.40;5.40;;;;;;;;;;4983764;28;20445;-57
2022/10/04 08:39:10;;;;;;;5.93;5.07;;;;;;;;;;4990540;28;20428;-55
2022/10/04 08:41:44;;;;;;;9.33;6.07;;;;;;;;;;4964208;28;20457;-56
2022/10/04 08:44:29;;;;;;;7.30;5.00;;;;;;;;;;5015743;28;20861;-56
2022/10/04 08:46:57;;;;;;;8.10;5.20;;;;;;;;;;4986302;28;20472;-57
2022/10/04 08:49:23;;;;;;;6.87;4.60;;;;;;;;;;4987974;28;20456;-56
2022/10/04 08:52:10;;;;;;;12.80;5.03;;;;;;;;;;4964908;28;20460;-58
2022/10/04 08:54:56;;;;;;;8.37;4.77;;;;;;;;;;4986804;28;20443;-57
2022/10/04 08:57:30;;;;;;;7.83;4.07;;;;;;;;;;4957475;28;20449;-56
2022/10/04 09:00:06;;;;;;;6.10;4.17;;;;;;;;;;4975827;28;20423;-57
2022/10/04 09:02:52;;;;;;;8.97;3.43;;;;;;;;;;4976750;28;20452;-56
2022/10/04 09:05:28;;;;;;;11.30;4.07;;;;;;;;;;4978710;28;20487;-57
2022/10/04 09:08:13;;;;;;;8.43;3.77;;;;;;;;;;4983949;28;20476;-56
2022/10/04 09:10:39;;;;;;;5.50;4.20;;;;;;;;;;4982780;28;20440;-56
2022/10/04 09:13:21;;;;;;;4.07;3.43;;;;;;;;;;4983949;28;20444;-56
2022/10/04 09:15:55;;;;;;;4.07;3.17;;;;;;;;;;4960237;28;20452;-56
2022/10/04 09:18:31;;;;;;;6.07;3.43;;;;;;;;;;4983745;28;20613;-54
2022/10/04 09:21:07;;;;;;;9.20;4.00;;;;;;;;;;4986517;28;20445;-55
2022/10/04 09:23:45;;;;;;;10.60;3.87;;;;;;;;;;5013929;28;20441;-56
2022/10/04 09:26:21;;;;;;;6.33;3.33;;;;;;;;;;4982393;28;20425;-57
2022/10/04 09:28:51;;;;;;;3.90;3.30;;;;;;;;;;4989473;28;20457;-56
2022/10/04 09:31:17;;;;;;;7.47;3.50;;;;;;;;;;4942003;28;21327;-54
2022/10/04 09:33:43;;;;;;;5.30;3.80;;;;;;;;;;4980798;28;20452;-57
2022/10/04 09:36:15;;;;;;;6.20;4.07;;;;;;;;;;4985277;28;20417;-56
2022/10/04 09:38:59;;;;;;;7.60;3.80;;;;;;;;;;4985852;28;20443;-56
2022/10/04 09:41:44;;;;;;;5.60;3.63;;;;;;;;;;4978570;28;22352;-56
2022/10/04 09:44:17;;;;;;;6.77;3.60;;;;;;;;;;4984187;28;20881;-56
2022/10/04 09:47:02;;;;;;;4.30;3.40;;;;;;;;;;4961371;28;20490;-56
2022/10/04 09:49:40;;;;;;;5.07;3.57;;;;;;;;;;5011201;28;20444;-56
2022/10/04 09:52:18;;;;;;;7.30;3.27;;;;;;;;;;4960483;28;20460;-56
2022/10/04 09:54:48;;;;;;;8.37;3.80;;;;;;;;;;4983058;28;20922;-56
2022/10/04 09:57:18;;;;;;;5.73;3.40;;;;;;;;;;4981804;28;20441;-56
2022/10/04 09:59:44;;;;;;;4.23;3.00;;;;;;;;;;4982455;28;20439;-56
2022/10/04 10:02:27;;;;;;;5.00;2.40;;;;;;;;;;4963206;28;20437;-56
2022/10/04 10:04:59;;;;;;;5.87;4.07;;;;;;;;;;4983209;28;20436;-55
2022/10/04 10:07:28;;;;;;;7.70;3.40;;;;;;;;;;4980017;28;20472;-56
2022/10/04 10:16:04;;;;;;;2.63;2.43;;;;;;;;;;4984149;28;20456;-55
2022/10/04 10:18:30;;;;;;;6.57;3.00;;;;;;;;;;4959042;28;20436;-56
2022/10/04 10:21:15;;;;;;;4.37;2.70;;;;;;;;;;4985066;28;20915;-56
2022/10/04 10:23:45;;;;;;;4.17;3.63;;;;;;;;;;4962955;28;20472;-56
2022/10/04 10:26:22;;;;;;;4.17;3.20;;;;;;;;;;4985066;28;20444;-57
2022/10/04 10:29:04;;;;;;;7.90;3.17;;;;;;;;;;4980590;28;20417;-56
2022/10/04 10:31:33;;;;;;;5.70;3.20;;;;;;;;;;4982960;28;20484;-55
2022/10/04 10:34:29;;;;;;;5.47;2.80;;;;;;;;;;4962256;28;20441;-56
2022/10/04 10:36:59;;;;;;;4.63;2.97;;;;;;;;;;4978229;28;20433;-55
2022/10/04 10:39:25;;;;;;;4.00;3.20;;;;;;;;;;4982960;28;20441;-57
2022/10/04 10:42:13;;;;;;;6.20;3.30;;;;;;;;;;4983016;28;20846;-58
2022/10/04 10:44:58;;;;;;;7.70;3.67;;;;;;;;;;5013968;28;20197;-55
2022/10/04 10:47:28;;;;;;;5.10;3.77;;;;;;;;;;4976010;28;20468;-57
2022/10/04 10:50:03;;;;;;;7.07;3.53;;;;;;;;;;4984648;28;21013;-56
2022/10/04 10:52:43;;;;;;;3.90;2.87;;;;;;;;;;4955410;28;20535;-57
2022/10/04 10:55:12;;;;;;;5.23;2.90;;;;;;;;;;4984093;28;20429;-56
2022/10/04 10:57:57;;;;;;;4.10;3.20;;;;;;;;;;4980802;28;21152;-57
2022/10/04 11:00:26;;;;;;;4.40;3.20;;;;;;;;;;4985028;28;20534;-57
2022/10/04 11:02:55;;;;;;;5.03;2.97;;;;;;;;;;4965821;28;20463;-57
2022/10/04 11:05:41;;;;;;;2.93;2.60;;;;;;;;;;4987292;28;21021;-57
2022/10/04 11:08:28;;;;;;;7.17;3.47;;;;;;;;;;5007991;28;20566;-59
2022/10/04 11:11:15;;;;;;;8.60;5.83;;;;;;;;;;4986403;28;20467;-57
2022/10/04 11:13:50;;;;;;;4.40;3.30;;;;;;;;;;4984053;28;20459;-57
2022/10/04 11:16:35;;;;;;;7.60;3.47;;;;;;;;;;5013969;28;20527;-54
2022/10/04 11:19:01;;;;;;;3.90;3.10;;;;;;;;;;4982865;28;20436;-57
2022/10/04 11:21:26;;;;;;;6.47;3.97;;;;;;;;;;4985397;28;20447;-57
2022/10/04 11:24:12;;;;;;;5.73;3.37;;;;;;;;;;4964455;28;21178;-58
2022/10/04 11:26:57;;;;;;;5.93;2.97;;;;;;;;;;4985581;28;20469;-55
2022/10/04 11:29:42;;;;;;;5.07;3.33;;;;;;;;;;4970017;28;20487;-53
2022/10/04 11:32:27;;;;;;;4.93;3.83;;;;;;;;;;4969835;28;21863;-55
2022/10/04 11:34:59;;;;;;;4.87;3.03;;;;;;;;;;4986437;28;20499;-54
2022/10/04 11:37:29;;;;;;;4.90;3.83;;;;;;;;;;4957659;28;20543;-55
2022/10/04 11:39:54;;;;;;;6.63;2.90;;;;;;;;;;4984918;28;20436;-57
2022/10/04 11:42:20;;;;;;;5.07;3.37;;;;;;;;;;4984146;28;20425;-57
2022/10/04 11:45:02;;;;;;;3.80;3.27;;;;;;;;;;4985439;28;20185;-55
2022/10/04 11:47:37;;;;;;;5.07;2.60;;;;;;;;;;5008041;28;21328;-55
2022/10/04 11:50:22;;;;;;;6.77;3.00;;;;;;;;;;4990480;28;20480;-56
2022/10/04 11:53:05;;;;;;;4.50;2.90;;;;;;;;;;4965569;28;20536;-57
2022/10/04 11:55:53;;;;;;;3.33;2.77;;;;;;;;;;5014172;28;20441;-56
2022/10/04 11:58:31;;;;;;;4.93;3.20;;;;;;;;;;4985035;28;20464;-55
2022/10/04 12:01:17;;;;;;;4.63;3.30;;;;;;;;;;4987813;28;20433;-56
2022/10/04 12:03:54;;;;;;;4.30;2.93;;;;;;;;;;4960562;28;20507;-58
2022/10/04 12:06:23;;;;;;;5.97;2.87;;;;;;;;;;5011508;28;21374;-56
2022/10/04 12:08:53;;;;;;;3.40;2.70;;;;;;;;;;4978673;28;20451;-56
2022/10/04 12:12:35;;;;;;;5.57;3.13;;;;;;;;;;5011535;28;20463;-57
2022/10/04 12:14:23;;;;;;;4.03;2.23;;;;;;;;;;4972719;28;20448;-58
2022/10/04 12:17:17;;;;;;;3.50;2.80;;;;;;;;;;4939034;28;20429;-54
2022/10/04 12:19:58;;;;;;;3.30;2.43;;;;;;;;;;4972020;28;20465;-57
2022/10/04 12:22:53;;;;;;;3.67;2.50;;;;;;;;;;4979710;28;20437;-57
2022/10/04 12:25:39;;;;;;;4.50;2.70;;;;;;;;;;4981199;28;21939;-55
2022/10/04 12:28:11;;;;;;;3.73;2.90;;;;;;;;;;4961630;28;21026;-55
2022/10/04 12:30:40;;;;;;;4.27;2.60;;;;;;;;;;4980655;28;20458;-57
2022/10/04 12:33:09;;;;;;;3.10;2.70;;;;;;;;;;4962002;28;21075;-55
2022/10/04 12:35:41;;;;;;;3.83;2.80;;;;;;;;;;4985419;28;20432;-56
2022/10/04 12:38:12;;;;;;;3.20;2.23;;;;;;;;;;4954857;28;20552;-55
2022/10/04 12:40:56;;;;;;;3.50;2.90;;;;;;;;;;4985432;28;20446;-55
2022/10/04 12:43:35;;;;;;;3.43;2.50;;;;;;;;;;4946608;28;20445;-57
2022/10/04 12:46:11;;;;;;;3.90;3.10;;;;;;;;;;5011809;28;20433;-57
2022/10/04 12:48:47;;;;;;;18.30;3.23;;;;;;;;;;4978317;28;20480;-56
2022/10/04 12:51:20;;;;;;;2.70;1.70;;;;;;;;;;4979674;28;20435;-57
2022/10/04 12:54:00;;;;;;;3.00;2.20;;;;;;;;;;4966633;28;20592;-57
2022/10/04 12:56:32;;;;;;;2.53;2.33;;;;;;;;;;5008962;28;20448;-56
2022/10/04 12:59:14;;;;;;;3.90;2.47;;;;;;;;;;4983088;28;20607;-58
2022/10/04 13:01:53;;;;;;;3.30;2.13;;;;;;;;;;4966264;28;20961;-55
2022/10/04 13:04:31;;;;;;;3.97;2.40;;;;;;;;;;4977353;28;20433;-57
2022/10/04 13:07:09;;;;;;;3.50;2.27;;;;;;;;;;4962133;28;20663;-57
2022/10/04 13:09:39;;;;;;;2.50;1.97;;;;;;;;;;4987241;28;20445;-56
2022/10/04 13:12:09;;;;;;;2.57;2.00;;;;;;;;;;4954066;28;20456;-57
2022/10/04 13:14:38;;;;;;;4.03;2.60;;;;;;;;;;5010966;28;20444;-56
2022/10/04 13:17:13;;;;;;;3.90;2.90;;;;;;;;;;4947729;28;20964;-57
2022/10/04 13:19:49;;;;;;;3.97;2.83;;;;;;;;;;5012096;28;20440;-57
2022/10/04 13:22:29;;;;;;;4.00;2.70;;;;;;;;;;4962518;28;21154;-57
2022/10/04 13:25:10;;;;;;;4.57;3.00;;;;;;;;;;4984705;28;20467;-57
2022/10/04 13:27:59;;;;;;;5.57;4.17;;;;;;;;;;5006902;28;20481;-57
2022/10/04 13:30:26;;;;;;;7.13;2.70;;;;;;;;;;4985114;28;20465;-57
2022/10/04 13:32:55;;;;;;;5.03;2.97;;;;;;;;;;4981143;28;20464;-56
2022/10/04 13:35:44;;;;;;;3.53;2.90;;;;;;;;;;4983079;28;20440;-55
2022/10/04 13:38:29;;;;;;;6.70;3.20;;;;;;;;;;4970737;28;20445;-56
2022/10/04 13:41:14;;;;;;;5.00;2.97;;;;;;;;;;4975008;28;20441;-55
2022/10/04 13:43:55;;;;;;;3.67;2.90;;;;;;;;;;4980939;28;20496;-57
2022/10/04 13:46:24;;;;;;;3.63;2.73;;;;;;;;;;4948570;28;21633;-54
2022/10/04 13:48:56;;;;;;;6.40;2.97;;;;;;;;;;4982795;28;20519;-55
2022/10/04 13:51:25;;;;;;;4.20;3.10;;;;;;;;;;4947136;28;21297;-54
2022/10/04 13:57:08;;;;;;;5.30;2.93;;;;;;;;;;4955922;28;20451;-55
2022/10/04 13:59:34;;;;;;;3.50;2.57;;;;;;;;;;4985458;28;20459;-55
2022/10/04 14:02:12;;;;;;;10.10;3.80;;;;;;;;;;4977986;28;20437;-55
2022/10/04 14:04:52;;;;;;;6.20;3.30;;;;;;;;;;4983133;28;20425;-56
2022/10/04 14:07:47;;;;;;;4.43;3.47;;;;;;;;;;4960601;28;20903;-56
2022/10/04 14:10:21;;;;;;;4.83;3.57;;;;;;;;;;4982121;28;20445;-56
2022/10/04 14:13:02;;;;;;;5.47;2.80;;;;;;;;;;4972128;28;20450;-55
2022/10/04 14:15:35;;;;;;;5.20;2.67;;;;;;;;;;4931812;28;20551;-55
2022/10/04 14:18:10;;;;;;;4.40;3.00;;;;;;;;;;4977637;28;20528;-54
2022/10/04 14:20:48;;;;;;;6.10;3.17;;;;;;;;;;4954676;28;20452;-55
2022/10/04 14:23:20;;;;;;;3.47;2.70;;;;;;;;;;4975945;28;20441;-55
2022/10/04 14:25:45;;;;;;;3.73;3.20;;;;;;;;;;4941215;28;21189;-57
2022/10/04 14:28:32;;;;;;;3.17;2.50;;;;;;;;;;4980909;28;20488;-55
2022/10/04 14:31:18;;;;;;;6.40;3.07;;;;;;;;;;4959702;28;20500;-58
2022/10/04 14:33:57;;;;;;;7.43;2.80;;;;;;;;;;4984608;28;20945;-56
2022/10/04 14:36:33;;;;;;;3.13;2.73;;;;;;;;;;4957759;28;20453;-55
2022/10/04 14:39:00;;;;;;;2.70;2.50;;;;;;;;;;4983457;28;20437;-58
2022/10/04 14:41:34;;;;;;;9.03;3.83;;;;;;;;;;4962704;28;20449;-55
2022/10/04 14:44:12;;;;;;;5.80;2.87;;;;;;;;;;4989559;28;20441;-54
2022/10/04 14:46:39;;;;;;;5.30;2.60;;;;;;;;;;4962356;28;20476;-57
2022/10/04 14:49:23;;;;;;;6.33;3.33;;;;;;;;;;4986850;28;20463;-56
2022/10/04 14:52:03;;;;;;;6.20;2.90;;;;;;;;;;4982212;28;20457;-57
2022/10/04 14:54:29;;;;;;;4.60;2.63;;;;;;;;;;4985499;28;20806;-56
2022/10/04 14:57:13;;;;;;;4.00;2.50;;;;;;;;;;4952597;28;20499;-57
2022/10/04 14:59:41;;;;;;;3.00;2.10;;;;;;;;;;4995676;28;20472;-57
2022/10/04 15:02:32;;;;;;;4.07;2.77;;;;;;;;;;4964390;28;20903;-55
2022/10/04 15:05:01;;;;;;;8.83;2.87;;;;;;;;;;4982150;28;20463;-55
2022/10/04 15:07:41;;;;;;;6.27;3.20;;;;;;;;;;5012231;28;20484;-56
2022/10/04 15:10:17;;;;;;;4.80;3.07;;;;;;;;;;4994474;28;20444;-56
2022/10/04 15:13:02;;;;;;;4.43;2.90;;;;;;;;;;4982880;28;20977;-57
2022/10/04 15:15:31;;;;;;;3.47;2.60;;;;;;;;;;4964034;28;21036;-55
2022/10/04 15:18:02;;;;;;;5.13;3.13;;;;;;;;;;4978423;28;20433;-55
2022/10/04 15:20:28;;;;;;;5.90;2.73;;;;;;;;;;4962716;28;23515;-54
2022/10/04 15:22:56;;;;;;;7.57;2.50;;;;;;;;;;4975848;28;21010;-57
2022/10/04 15:25:42;;;;;;;2.67;2.13;;;;;;;;;;4976727;28;20449;-57
2022/10/04 15:28:27;;;;;;;3.50;2.60;;;;;;;;;;4940667;28;20535;-55
2022/10/04 15:30:59;;;;;;;2.40;2.20;;;;;;;;;;4974078;28;20510;-56
2022/10/04 15:33:26;;;;;;;5.77;2.63;;;;;;;;;;4968841;28;20449;-56